Aérodrome :
LOGIN :

S'inscrire | Disclaimer

   EN    FR    IT 

 










Légende :    VFR   VFR Marginal   IFR   IFR Intensif   IFR Très Intensif
Visi : 
Plafond : 
>= 8 km
>= 3000ft
5 à 8 km
1000 à 3000 ft
1500m à 5 km
500 à 1000 ft
800 à 1500m
200 à 500 ft
< 800m
< 200 ft
Symboles :   Orages  Brouillard  Fortes neiges  Fortes précipitations  Vent > 20 kt
SIGMETs :   Divers  Orages  Givrage  Turbulence  Onde Orograph.  Cendres Volcan.







- Altitude de l'aérodrome : 138 ft
- Code IATA : RLG


ETNL - Rostock Laage

DERNIER METAR :
  • 181720Z 18004KT 9999 FEW110 BKN130 02/M03 Q1026 BLU

METARs EXPIRÉS :
  • 181620Z 19005KT 9999 FEW037 BKN130 BKN150 03/M03 Q1026 BLU
  • 181520Z 19006KT 9999 FEW037 BKN140 BKN160 04/M04 Q1026 BLU
  • 181458Z 20007KT 9999 FEW037 BKN140 BKN160 04/M04 Q1026 BLU

TAF TAF ETNL
Valide du 18 à 18h jusqu'au 19 à 12h UTC


181700Z 1818/1912 18005KT 9999 NSW FEW040 SCT150 BKN200 BY ETGL
Pas de NOTAMs connus pour ce terrain.



MET'MAP, la Météo Aéronautique d'un coup d'oeil ! - Copyright ORBIFLY Décembre 2007 - Disclaimer

ORBIFLY MET'MAP TEAM :

Programmation & Développement : Alexandra Zaïnal
Conception & Développement : Baudouin d'Aumeries
Co-Programmation & Développement : Marc-Olivier Méhu
Soutien technique & logistique : Manuel Goepfert

Contact : metmap@orbifly.com




SOURCES & CREDITS :

   NOAA